Time;durP1;ratioP1;P1;durP2;ratioP2;P2;SDS_P1;SDS_P2;PMS_P1;PMS_P2;Temp;Humidity;BMP_temperature;BMP_pressure;BME280_temperature;BME280_humidity;BME280_pressure;Samples;Min_cycle;Max_cycle;Signal;HPM_P1;HPM_P2
2022/12/07 00:01:11;;;;;;;3.15;1.63;;;3.20;99.90;;;;;;4994252;28;20070;-69
2022/12/07 00:03:38;;;;;;;3.55;1.20;;;3.20;99.90;;;;;;4995056;28;20054;-69
2022/12/07 00:06:05;;;;;;;1.77;0.95;;;3.30;99.90;;;;;;4994524;28;20405;-69
2022/12/07 00:08:33;;;;;;;4.63;1.10;;;3.20;99.90;;;;;;4995690;28;20038;-69
2022/12/07 00:11:19;;;;;;;3.65;1.25;;;3.20;99.90;;;;;;4997938;28;20042;-69
2022/12/07 00:13:46;;;;;;;1.88;1.10;;;3.10;99.90;;;;;;4999670;28;20049;-69
2022/12/07 00:16:18;;;;;;;2.88;1.15;;;3.10;99.90;;;;;;5005607;28;20046;-69
2022/12/07 00:18:44;;;;;;;2.45;1.10;;;3.00;99.90;;;;;;5003040;28;20484;-69
2022/12/07 00:21:12;;;;;;;4.73;1.50;;;3.00;99.90;;;;;;4964909;28;1106087;-69
2022/12/07 00:23:39;;;;;;;7.03;1.48;;;3.00;99.90;;;;;;5004268;28;20118;-69
2022/12/07 00:26:07;;;;;;;2.53;1.10;;;2.90;99.90;;;;;;5009028;28;20049;-69
2022/12/07 00:28:33;;;;;;;3.65;1.23;;;2.90;99.90;;;;;;4992513;28;20117;-69
2022/12/07 00:31:07;;;;;;;2.95;0.88;;;2.80;99.90;;;;;;4989430;28;20623;-69
2022/12/07 00:33:34;;;;;;;1.67;0.93;;;2.80;99.90;;;;;;4995770;28;20081;-69
2022/12/07 00:36:01;;;;;;;3.72;1.08;;;2.80;99.90;;;;;;4993789;28;20051;-70
2022/12/07 00:38:32;;;;;;;3.97;1.10;;;2.80;99.90;;;;;;4995073;28;20066;-70
2022/12/07 00:40:59;;;;;;;4.32;0.98;;;2.90;99.90;;;;;;4996361;28;20047;-70
2022/12/07 00:43:25;;;;;;;4.13;1.20;;;2.90;99.90;;;;;;5019658;28;20050;-70
2022/12/07 00:45:51;;;;;;;2.95;1.20;;;3.00;99.90;;;;;;4995616;28;20054;-71
2022/12/07 00:48:17;;;;;;;5.00;1.10;;;3.00;99.90;;;;;;4991161;28;20041;-69
2022/12/07 00:50:42;;;;;;;3.28;1.02;;;3.10;99.90;;;;;;4995374;28;20092;-70
2022/12/07 00:53:08;;;;;;;3.97;1.45;;;3.10;99.90;;;;;;4981938;28;20125;-69
2022/12/07 00:55:35;;;;;;;4.75;1.23;;;3.10;99.90;;;;;;4984349;28;20116;-69
2022/12/07 00:58:01;;;;;;;4.60;1.13;;;3.10;99.90;;;;;;4999923;28;20081;-69
2022/12/07 01:00:26;;;;;;;3.40;1.10;;;3.10;99.90;;;;;;4993806;28;20061;-70
2022/12/07 01:02:52;;;;;;;1.80;0.90;;;3.10;99.90;;;;;;4995545;28;20070;-69
2022/12/07 01:05:18;;;;;;;3.20;0.80;;;3.00;99.90;;;;;;4992906;28;21006;-69
2022/12/07 01:07:44;;;;;;;1.98;0.88;;;2.90;99.90;;;;;;4979456;28;20047;-69
2022/12/07 01:10:10;;;;;;;2.13;0.90;;;2.90;99.90;;;;;;4993360;28;20061;-69
2022/12/07 01:12:35;;;;;;;3.08;1.10;;;2.80;99.90;;;;;;4994605;28;20046;-70
2022/12/07 01:15:01;;;;;;;3.42;1.00;;;2.80;99.90;;;;;;5072285;28;20139;-69
2022/12/07 01:17:28;;;;;;;4.85;1.23;;;2.80;99.90;;;;;;5008576;28;20053;-70
2022/12/07 01:19:54;;;;;;;3.30;0.82;;;2.70;99.90;;;;;;4994446;28;20054;-69
2022/12/07 01:22:19;;;;;;;3.53;0.90;;;3.20;99.90;;;;;;4992525;28;20062;-69
2022/12/07 01:24:46;;;;;;;3.78;0.82;;;2.80;99.90;;;;;;5022379;28;20045;-69
2022/12/07 01:27:12;;;;;;;3.03;0.73;;;2.60;99.90;;;;;;5012128;28;20056;-69
2022/12/07 01:29:38;;;;;;;2.95;1.25;;;2.70;99.90;;;;;;4998942;28;20042;-70
2022/12/07 01:32:04;;;;;;;4.35;1.10;;;2.70;99.90;;;;;;4995016;28;20042;-69
2022/12/07 01:34:30;;;;;;;2.83;0.98;;;2.70;99.90;;;;;;4977653;28;20046;-69
2022/12/07 01:36:55;;;;;;;3.78;1.00;;;2.70;99.90;;;;;;4978325;28;20553;-69
2022/12/07 01:39:21;;;;;;;4.18;0.82;;;2.70;99.90;;;;;;4997070;28;20038;-69
2022/12/07 01:41:47;;;;;;;5.13;1.00;;;2.70;99.90;;;;;;5000949;28;20046;-69
2022/12/07 01:44:23;;;;;;;5.85;1.20;;;2.70;99.90;;;;;;4992658;28;20065;-69
2022/12/07 01:47:02;;;;;;;3.85;1.10;;;2.60;99.90;;;;;;4994279;28;20051;-70
2022/12/07 01:49:34;;;;;;;2.90;1.02;;;2.60;99.90;;;;;;4993763;28;20046;-69
2022/12/07 01:52:18;;;;;;;2.47;1.23;;;2.60;99.90;;;;;;4992654;28;20047;-70
2022/12/07 01:54:49;;;;;;;2.88;1.00;;;2.50;99.90;;;;;;4996204;28;20501;-69
2022/12/07 01:57:16;;;;;;;2.42;1.00;;;2.70;99.90;;;;;;4992398;28;20050;-69
2022/12/07 01:59:44;;;;;;;2.97;0.90;;;2.50;99.90;;;;;;4993976;28;20054;-69
2022/12/07 02:02:22;;;;;;;3.00;0.90;;;2.40;99.90;;;;;;4995109;28;20050;-69
2022/12/07 02:04:50;;;;;;;4.45;1.20;;;2.40;99.90;;;;;;4992910;28;20053;-70
2022/12/07 02:07:16;;;;;;;4.10;1.25;;;2.40;99.90;;;;;;4994753;28;20043;-70
2022/12/07 02:09:42;;;;;;;4.43;1.08;;;2.30;99.90;;;;;;4991902;28;20038;-70
2022/12/07 02:12:08;;;;;;;3.42;0.90;;;2.40;99.90;;;;;;4993504;28;20054;-70
2022/12/07 02:14:34;;;;;;;2.40;0.77;;;2.40;99.90;;;;;;4976092;28;20042;-69
2022/12/07 02:17:19;;;;;;;3.20;1.00;;;2.40;99.90;;;;;;5010547;28;20061;-70
2022/12/07 02:19:53;;;;;;;2.97;1.08;;;2.50;99.90;;;;;;4998902;28;20058;-69
2022/12/07 02:22:38;;;;;;;2.17;1.02;;;2.50;99.90;;;;;;4991930;28;20055;-69
2022/12/07 02:25:28;;;;;;;5.38;0.93;;;2.50;99.90;;;;;;5028689;28;20115;-70
2022/12/07 02:28:06;;;;;;;2.40;0.90;;;2.60;99.90;;;;;;4992996;28;20054;-70
2022/12/07 02:30:35;;;;;;;2.13;0.85;;;2.60;99.90;;;;;;4992234;28;20047;-70
2022/12/07 02:33:13;;;;;;;3.20;1.20;;;2.60;99.90;;;;;;4995657;28;20053;-70
2022/12/07 02:36:05;;;;;;;3.33;0.90;;;2.60;99.90;;;;;;4991608;28;20051;-70
2022/12/07 02:38:37;;;;;;;4.75;1.30;;;2.60;99.90;;;;;;4993255;28;20058;-70
2022/12/07 02:41:08;;;;;;;3.28;0.80;;;2.60;99.90;;;;;;4994788;28;20054;-69
2022/12/07 02:43:39;;;;;;;3.35;0.90;;;2.60;99.90;;;;;;4991587;28;20050;-70
2022/12/07 02:46:09;;;;;;;2.10;0.70;;;2.80;99.90;;;;;;4995415;28;20051;-70
2022/12/07 02:48:37;;;;;;;3.58;0.60;;;2.50;99.90;;;;;;4993198;28;20072;-70
2022/12/07 02:51:02;;;;;;;1.98;1.42;;;2.50;99.90;;;;;;4994241;28;20501;-69
2022/12/07 02:53:37;;;;;;;2.15;0.93;;;2.50;99.90;;;;;;4997424;28;20046;-69
2022/12/07 02:56:22;;;;;;;2.33;0.65;;;2.80;99.90;;;;;;4996130;28;20061;-70
2022/12/07 02:59:16;;;;;;;1.30;0.77;;;2.60;99.90;;;;;;4995762;28;20077;-70
2022/12/07 03:02:14;;;;;;;1.73;0.60;;;2.60;99.90;;;;;;5010288;28;20519;-69
2022/12/07 03:04:53;;;;;;;2.83;0.73;;;2.60;99.90;;;;;;5007996;28;20149;-70
2022/12/07 03:07:32;;;;;;;2.25;0.60;;;2.60;99.90;;;;;;4995524;28;20050;-70
2022/12/07 03:10:27;;;;;;;1.00;0.50;;;2.60;99.90;;;;;;5000180;28;20062;-70
2022/12/07 03:13:02;;;;;;;2.50;0.68;;;2.50;99.90;;;;;;4992989;28;20183;-70
2022/12/07 03:15:31;;;;;;;2.97;0.70;;;2.60;99.90;;;;;;4993211;28;20050;-70
2022/12/07 03:18:00;;;;;;;4.60;1.15;;;2.60;99.90;;;;;;5000717;28;20128;-71
2022/12/07 03:20:28;;;;;;;6.15;1.13;;;2.70;99.90;;;;;;5067470;28;20056;-71
2022/12/07 03:22:55;;;;;;;3.72;0.95;;;2.60;99.90;;;;;;5058204;28;20063;-70
2022/12/07 03:25:22;;;;;;;3.67;1.30;;;2.70;99.90;;;;;;5000691;28;20058;-71
2022/12/07 03:28:08;;;;;;;2.25;0.80;;;2.70;99.90;;;;;;5022076;28;20038;-72
2022/12/07 03:30:41;;;;;;;4.90;1.13;;;2.70;99.90;;;;;;4994466;28;20045;-72
2022/12/07 03:33:27;;;;;;;3.47;0.80;;;2.70;99.90;;;;;;4997300;28;20054;-73
2022/12/07 03:36:08;;;;;;;1.02;0.63;;;2.80;99.90;;;;;;5018745;28;20702;-71
2022/12/07 03:39:02;;;;;;;4.60;0.77;;;2.90;99.90;;;;;;4996183;28;20042;-71
2022/12/07 03:41:34;;;;;;;3.20;0.75;;;3.00;99.90;;;;;;5002974;28;20420;-70
2022/12/07 03:44:00;;;;;;;3.15;0.75;;;3.10;99.90;;;;;;4997163;28;20082;-71
2022/12/07 03:46:36;;;;;;;3.58;0.70;;;3.00;99.90;;;;;;4997650;28;20046;-71
2022/12/07 03:49:15;;;;;;;2.95;0.68;;;3.00;99.90;;;;;;4996214;28;20054;-71
2022/12/07 03:51:51;;;;;;;3.75;0.70;;;2.90;99.90;;;;;;5005007;28;20073;-71
2022/12/07 03:54:32;;;;;;;2.67;0.80;;;3.10;99.90;;;;;;5017466;28;20084;-71
2022/12/07 03:56:59;;;;;;;2.25;0.65;;;2.90;99.90;;;;;;4994428;28;20080;-70
2022/12/07 03:59:26;;;;;;;3.35;1.35;;;2.90;99.90;;;;;;4997500;28;20050;-72
2022/12/07 04:01:55;;;;;;;3.35;1.00;;;3.20;99.90;;;;;;4994177;28;20039;-71
2022/12/07 04:04:22;;;;;;;3.85;1.27;;;2.90;99.90;;;;;;4995525;28;20058;-71
2022/12/07 04:06:47;;;;;;;3.75;1.40;;;3.00;99.90;;;;;;4997292;28;20043;-71
2022/12/07 04:09:14;;;;;;;2.85;0.88;;;2.90;99.90;;;;;;4995652;28;20136;-71
2022/12/07 04:11:40;;;;;;;3.92;1.17;;;2.90;99.90;;;;;;4996023;28;20087;-71
2022/12/07 04:14:18;;;;;;;3.92;1.05;;;2.90;99.90;;;;;;5004860;28;20044;-70
2022/12/07 04:16:56;;;;;;;6.05;1.35;;;2.90;99.90;;;;;;5013012;28;20081;-71
2022/12/07 04:19:27;;;;;;;3.22;1.33;;;2.90;99.90;;;;;;4996979;28;20046;-70
2022/12/07 04:21:53;;;;;;;5.25;1.30;;;2.90;99.90;;;;;;4994956;28;20524;-71
2022/12/07 04:24:19;;;;;;;4.43;1.13;;;3.00;99.90;;;;;;5029872;28;20051;-70
2022/12/07 04:26:46;;;;;;;3.17;1.25;;;3.20;99.90;;;;;;5005400;28;20052;-71
2022/12/07 04:29:13;;;;;;;3.40;1.17;;;2.80;99.90;;;;;;4996294;28;20034;-70
2022/12/07 04:31:39;;;;;;;3.72;1.45;;;2.80;99.90;;;;;;4993976;28;20489;-70
2022/12/07 04:34:06;;;;;;;3.08;1.30;;;3.30;99.90;;;;;;4997208;28;20039;-71
2022/12/07 04:36:32;;;;;;;3.60;1.45;;;2.80;99.90;;;;;;4994195;28;20087;-69
2022/12/07 04:38:58;;;;;;;2.53;1.33;;;2.80;99.90;;;;;;4995608;28;20038;-70
2022/12/07 04:41:28;;;;;;;4.07;1.10;;;2.80;99.90;;;;;;5067780;28;20068;-69
2022/12/07 04:44:02;;;;;;;3.58;1.45;;;2.60;99.90;;;;;;5015867;28;20054;-70
2022/12/07 04:46:29;;;;;;;3.25;1.25;;;2.60;99.90;;;;;;5007565;28;20048;-69
2022/12/07 04:48:55;;;;;;;1.75;1.00;;;2.50;99.90;;;;;;4996909;28;20046;-69
2022/12/07 04:51:23;;;;;;;1.90;1.00;;;2.50;99.90;;;;;;4995564;28;20126;-70
2022/12/07 04:53:49;;;;;;;3.05;1.17;;;2.40;99.90;;;;;;4978981;28;20065;-69
2022/12/07 04:56:16;;;;;;;2.65;1.00;;;2.40;99.90;;;;;;4993427;28;20062;-70
2022/12/07 04:58:43;;;;;;;2.40;0.93;;;2.30;99.90;;;;;;4997211;28;20057;-69
2022/12/07 05:01:09;;;;;;;3.40;1.10;;;2.20;99.90;;;;;;4994626;28;20062;-69
2022/12/07 05:03:36;;;;;;;2.42;0.80;;;2.10;99.90;;;;;;4996748;28;20043;-69
2022/12/07 05:06:02;;;;;;;2.20;0.85;;;2.00;99.90;;;;;;4993671;28;20089;-70
2022/12/07 05:08:28;;;;;;;3.28;1.20;;;2.00;99.90;;;;;;4995198;28;20405;-69
2022/12/07 05:10:54;;;;;;;2.65;0.90;;;1.90;99.90;;;;;;4995909;28;20059;-69
2022/12/07 05:13:19;;;;;;;2.85;0.80;;;1.90;99.90;;;;;;4994737;28;20540;-69
2022/12/07 05:15:47;;;;;;;2.55;0.98;;;1.90;99.90;;;;;;4999980;28;20046;-69
2022/12/07 05:18:13;;;;;;;3.45;0.80;;;1.80;99.90;;;;;;4994386;28;20069;-70
2022/12/07 05:20:39;;;;;;;2.55;0.90;;;1.90;99.90;;;;;;4994318;28;20514;-70
2022/12/07 05:23:05;;;;;;;2.45;0.80;;;1.80;99.90;;;;;;4992698;28;20133;-70
2022/12/07 05:25:31;;;;;;;3.70;0.80;;;1.90;99.90;;;;;;4995402;28;20085;-70
2022/12/07 05:27:57;;;;;;;4.63;1.00;;;2.10;99.90;;;;;;4977748;28;20054;-70
2022/12/07 05:30:24;;;;;;;2.40;0.70;;;1.90;99.90;;;;;;4994797;28;20077;-69
2022/12/07 05:32:50;;;;;;;2.22;0.70;;;1.90;99.90;;;;;;5012255;28;20580;-69
2022/12/07 05:35:16;;;;;;;7.05;0.95;;;2.00;99.90;;;;;;4992734;28;20490;-70
2022/12/07 05:37:42;;;;;;;4.40;0.90;;;2.00;99.90;;;;;;4994975;28;20062;-70
2022/12/07 05:40:08;;;;;;;1.60;0.90;;;2.10;99.90;;;;;;4992309;28;20058;-70
2022/12/07 05:42:34;;;;;;;3.78;1.10;;;2.20;99.90;;;;;;5033893;28;20048;-71
2022/12/07 05:45:00;;;;;;;5.07;0.95;;;2.30;99.90;;;;;;5011673;28;20046;-70
2022/12/07 05:47:25;;;;;;;2.55;1.02;;;2.30;99.90;;;;;;4994362;28;20069;-70
2022/12/07 05:49:51;;;;;;;3.50;1.10;;;2.40;99.90;;;;;;4996056;28;20490;-70
2022/12/07 05:52:17;;;;;;;4.53;1.00;;;2.40;99.90;;;;;;4991925;28;20062;-70
2022/12/07 05:54:43;;;;;;;1.92;0.70;;;2.40;99.90;;;;;;4996128;28;20038;-70
2022/12/07 05:57:08;;;;;;;2.40;0.70;;;2.70;99.90;;;;;;4993800;28;20057;-70
2022/12/07 05:59:34;;;;;;;3.35;0.70;;;2.40;99.90;;;;;;5005885;28;20570;-70
2022/12/07 06:02:08;;;;;;;4.97;0.70;;;2.30;99.90;;;;;;4994456;28;20054;-69
2022/12/07 06:04:38;;;;;;;1.95;0.70;;;2.30;99.90;;;;;;4994494;28;20049;-69
2022/12/07 06:07:05;;;;;;;1.67;0.70;;;2.20;99.90;;;;;;4994037;28;20454;-69
2022/12/07 06:09:31;;;;;;;1.95;0.80;;;2.20;99.90;;;;;;4993999;28;20046;-69
2022/12/07 06:14:42;;;;;;;3.63;1.00;;;2.10;99.90;;;;;;5005627;28;20054;-69
2022/12/07 06:17:09;;;;;;;2.13;0.70;;;2.10;99.90;;;;;;5012549;28;20072;-69
2022/12/07 06:19:35;;;;;;;1.90;0.68;;;2.00;99.90;;;;;;4995386;28;20130;-69
2022/12/07 06:22:01;;;;;;;3.58;0.93;;;1.90;99.90;;;;;;4991653;28;20061;-69
2022/12/07 06:24:27;;;;;;;4.25;0.93;;;1.80;99.90;;;;;;5012095;28;20054;-69
2022/12/07 06:26:52;;;;;;;4.07;1.35;;;1.80;99.90;;;;;;4998372;28;20042;-69
2022/12/07 06:29:19;;;;;;;1.90;0.65;;;1.70;99.90;;;;;;4994523;28;20057;-70
2022/12/07 06:31:45;;;;;;;6.45;1.92;;;1.70;99.90;;;;;;4993877;28;20045;-70
2022/12/07 06:34:14;;;;;;;1.77;0.57;;;1.70;99.90;;;;;;5011225;28;20131;-70
2022/12/07 06:36:39;;;;;;;1.48;0.50;;;1.80;99.90;;;;;;4997266;28;20056;-69
2022/12/07 06:39:06;;;;;;;5.13;1.15;;;1.80;99.90;;;;;;4996518;28;20046;-69
2022/12/07 06:41:32;;;;;;;3.25;1.08;;;1.80;99.90;;;;;;4993995;28;20042;-70
2022/12/07 06:43:57;;;;;;;4.05;0.90;;;1.70;99.90;;;;;;4992653;28;20057;-70
2022/12/07 06:46:23;;;;;;;4.10;0.90;;;3.00;99.90;;;;;;5006009;28;20075;-70
2022/12/07 06:48:49;;;;;;;4.20;0.80;;;1.70;99.90;;;;;;4996003;28;20069;-70
2022/12/07 06:51:16;;;;;;;3.33;0.80;;;1.70;99.90;;;;;;4994454;28;20034;-69
2022/12/07 06:53:42;;;;;;;3.08;0.70;;;1.70;99.90;;;;;;4994447;28;20046;-69
2022/12/07 06:56:08;;;;;;;5.32;1.02;;;1.70;99.90;;;;;;4993189;28;20046;-70
2022/12/07 06:58:33;;;;;;;2.72;0.80;;;1.70;99.90;;;;;;5002583;28;20054;-70
2022/12/07 07:00:59;;;;;;;3.42;0.80;;;1.60;99.90;;;;;;4994670;28;20054;-70
2022/12/07 07:03:25;;;;;;;2.53;0.73;;;1.70;99.90;;;;;;5003638;28;20095;-71
2022/12/07 07:05:50;;;;;;;1.48;0.65;;;1.70;99.90;;;;;;5046528;28;20052;-70
2022/12/07 07:08:16;;;;;;;1.42;0.82;;;1.70;99.90;;;;;;5025301;28;20098;-70
2022/12/07 07:10:42;;;;;;;2.30;0.80;;;1.80;99.90;;;;;;5009690;28;20038;-70
2022/12/07 07:13:08;;;;;;;4.05;0.95;;;1.90;99.90;;;;;;5017610;28;20110;-70
2022/12/07 07:15:34;;;;;;;2.85;0.80;;;1.90;99.90;;;;;;5060809;28;20098;-70
2022/12/07 07:18:00;;;;;;;1.85;0.93;;;2.00;99.90;;;;;;4997673;28;20061;-70
2022/12/07 07:20:26;;;;;;;2.78;0.70;;;2.00;99.90;;;;;;5001529;28;20046;-71
2022/12/07 07:22:54;;;;;;;3.13;0.70;;;2.10;99.90;;;;;;5006208;28;20054;-70
2022/12/07 07:25:20;;;;;;;6.22;1.45;;;2.10;99.90;;;;;;4997309;28;20084;-71
2022/12/07 07:27:45;;;;;;;2.35;1.10;;;2.20;99.90;;;;;;5002512;28;20042;-70
2022/12/07 07:30:12;;;;;;;7.57;0.95;;;2.20;99.90;;;;;;5001281;28;20039;-71
2022/12/07 07:32:38;;;;;;;2.60;0.70;;;2.20;99.90;;;;;;4996631;28;20521;-70
2022/12/07 07:35:04;;;;;;;4.07;0.82;;;2.30;99.90;;;;;;4994410;28;20045;-70
2022/12/07 07:37:30;;;;;;;3.83;0.95;;;2.30;99.90;;;;;;5010383;28;20042;-71
2022/12/07 07:39:55;;;;;;;3.95;0.88;;;2.50;99.90;;;;;;5026426;28;20045;-70
2022/12/07 07:42:21;;;;;;;3.88;0.98;;;2.30;99.90;;;;;;4997605;28;20076;-70
2022/12/07 07:44:47;;;;;;;3.60;0.98;;;2.30;99.90;;;;;;4996672;28;20092;-70
2022/12/07 07:47:12;;;;;;;2.42;0.80;;;2.30;99.90;;;;;;4996504;28;20043;-70
2022/12/07 07:49:38;;;;;;;4.50;0.90;;;2.50;99.90;;;;;;4997365;28;20043;-71
2022/12/07 07:52:06;;;;;;;3.95;0.93;;;2.20;99.90;;;;;;4995313;28;20073;-70
2022/12/07 07:54:31;;;;;;;1.25;0.75;;;2.50;99.90;;;;;;4997768;28;20066;-70
2022/12/07 07:56:57;;;;;;;2.58;1.63;;;2.20;99.90;;;;;;4994104;28;20113;-70
2022/12/07 07:59:25;;;;;;;2.75;0.95;;;2.10;99.90;;;;;;4995649;28;20502;-70
2022/12/07 08:01:50;;;;;;;3.45;0.93;;;2.10;99.90;;;;;;4995811;28;20051;-71
2022/12/07 08:04:16;;;;;;;3.38;1.00;;;2.20;99.90;;;;;;4996741;28;20090;-70
2022/12/07 08:06:42;;;;;;;3.28;0.80;;;2.80;99.90;;;;;;4995606;28;20053;-70
2022/12/07 08:09:09;;;;;;;3.40;1.05;;;2.30;99.90;;;;;;4992934;28;20046;-70
2022/12/07 08:11:36;;;;;;;1.45;0.52;;;2.40;99.90;;;;;;5026013;28;20455;-71
2022/12/07 08:14:01;;;;;;;3.30;1.00;;;2.40;99.90;;;;;;5018693;28;20049;-70
2022/12/07 08:16:27;;;;;;;1.88;0.80;;;2.40;99.90;;;;;;5008582;28;20172;-70
2022/12/07 08:18:53;;;;;;;2.33;0.88;;;2.60;99.90;;;;;;5001602;28;20057;-69
2022/12/07 08:21:19;;;;;;;6.18;1.27;;;2.40;99.90;;;;;;4997211;28;20539;-71
2022/12/07 08:23:44;;;;;;;3.80;1.00;;;2.50;99.90;;;;;;5009219;28;20054;-70
2022/12/07 08:26:13;;;;;;;3.40;0.93;;;2.60;99.90;;;;;;5007019;28;20050;-71
2022/12/07 08:28:39;;;;;;;3.17;0.73;;;2.40;99.90;;;;;;5042251;28;20049;-70
2022/12/07 08:31:08;;;;;;;2.38;0.98;;;2.30;99.90;;;;;;5008767;28;20038;-71
2022/12/07 08:33:35;;;;;;;4.13;0.90;;;2.30;99.90;;;;;;5005805;28;20046;-71
2022/12/07 08:36:05;;;;;;;2.40;0.70;;;2.20;99.90;;;;;;5009289;28;20038;-71
2022/12/07 08:38:31;;;;;;;2.53;0.70;;;2.30;99.90;;;;;;4984312;28;20042;-69
2022/12/07 08:40:58;;;;;;;2.00;0.70;;;2.20;99.90;;;;;;5018307;28;20159;-68
2022/12/07 08:43:25;;;;;;;3.35;0.70;;;2.20;99.90;;;;;;5003027;28;20053;-68
2022/12/07 08:46:11;;;;;;;2.55;0.90;;;2.20;99.90;;;;;;4999553;28;20050;-68
2022/12/07 08:48:52;;;;;;;2.13;1.00;;;2.30;99.90;;;;;;5006531;28;20588;-68
2022/12/07 08:51:18;;;;;;;2.65;0.93;;;2.30;99.90;;;;;;5010914;28;20054;-68
2022/12/07 08:53:45;;;;;;;3.30;1.27;;;2.40;99.90;;;;;;5015860;28;20046;-69
2022/12/07 08:56:11;;;;;;;3.50;0.80;;;2.90;99.90;;;;;;5003058;28;20597;-70
2022/12/07 08:58:38;;;;;;;4.50;1.00;;;2.50;99.90;;;;;;5006315;28;20056;-70
2022/12/07 09:01:04;;;;;;;3.38;0.95;;;2.60;99.90;;;;;;5002576;28;20038;-69
2022/12/07 09:03:30;;;;;;;5.95;0.90;;;2.60;99.90;;;;;;5010148;28;20072;-69
2022/12/07 09:05:57;;;;;;;5.80;0.93;;;2.70;99.90;;;;;;5002468;28;20050;-70
2022/12/07 09:08:26;;;;;;;3.45;0.70;;;2.90;99.90;;;;;;5011973;28;20557;-70
2022/12/07 09:10:52;;;;;;;3.67;0.70;;;2.90;99.90;;;;;;5014972;28;20064;-69
2022/12/07 09:13:17;;;;;;;3.08;0.70;;;3.00;99.90;;;;;;5010103;28;20042;-69
2022/12/07 09:15:43;;;;;;;2.78;1.10;;;3.20;99.90;;;;;;5040332;28;20046;-69
2022/12/07 09:18:08;;;;;;;3.42;0.90;;;4.10;99.90;;;;;;5013729;28;20115;-70
2022/12/07 09:20:34;;;;;;;4.10;1.00;;;3.40;99.90;;;;;;5013045;28;20049;-69
2022/12/07 09:23:00;;;;;;;1.73;0.80;;;3.40;99.90;;;;;;5011996;28;20058;-71
2022/12/07 09:25:26;;;;;;;4.05;0.93;;;3.40;99.90;;;;;;5015844;28;20397;-71
2022/12/07 09:27:56;;;;;;;2.78;1.13;;;3.50;99.90;;;;;;5008181;28;20125;-69
2022/12/07 09:30:22;;;;;;;3.83;1.10;;;3.40;99.90;;;;;;5006485;28;20056;-69
2022/12/07 09:32:48;;;;;;;4.88;0.73;;;3.30;99.90;;;;;;5016497;28;20053;-70
2022/12/07 09:35:14;;;;;;;3.65;0.90;;;3.30;99.90;;;;;;5013097;28;20038;-69
2022/12/07 09:37:39;;;;;;;5.45;1.20;;;3.30;99.90;;;;;;5012155;28;20050;-69
2022/12/07 09:40:05;;;;;;;3.35;0.90;;;3.40;99.90;;;;;;4998742;28;20038;-68
2022/12/07 09:42:37;;;;;;;4.70;1.55;;;3.40;99.90;;;;;;5003478;28;20057;-69
2022/12/07 09:45:07;;;;;;;2.70;1.00;;;3.50;99.90;;;;;;5000670;28;20050;-69
2022/12/07 09:47:36;;;;;;;4.75;0.95;;;3.60;99.90;;;;;;4994531;28;20038;-69
2022/12/07 09:50:18;;;;;;;2.92;0.90;;;3.70;99.90;;;;;;5010684;28;20071;-69
2022/12/07 09:52:47;;;;;;;3.13;0.80;;;3.80;99.90;;;;;;5007330;28;20440;-69
2022/12/07 09:55:16;;;;;;;3.65;0.98;;;4.00;99.90;;;;;;5007720;28;20041;-70
2022/12/07 09:57:43;;;;;;;1.85;0.88;;;4.40;99.90;;;;;;5004287;28;20199;-69
2022/12/07 10:00:17;;;;;;;2.33;0.60;;;3.90;99.90;;;;;;5006208;28;20079;-70
2022/12/07 10:03:00;;;;;;;2.08;0.70;;;4.00;99.90;;;;;;5003427;28;20070;-70
2022/12/07 10:05:37;;;;;;;2.63;0.80;;;4.20;99.90;;;;;;4993554;28;20046;-69
2022/12/07 10:08:03;;;;;;;;;;;4.20;99.90;;;;;;5006957;28;20046;-70
2022/12/07 10:10:33;;;;;;;2.73;0.80;;;4.20;99.90;;;;;;5038372;28;19935;-70
2022/12/07 10:13:04;;;;;;;4.88;1.17;;;4.10;99.90;;;;;;5042665;28;20041;-69
2022/12/07 10:15:48;;;;;;;3.65;1.02;;;4.10;99.90;;;;;;5011273;28;20046;-70
2022/12/07 10:18:32;;;;;;;2.00;0.77;;;4.40;99.90;;;;;;5010421;28;20042;-68
2022/12/07 10:21:03;;;;;;;4.57;1.02;;;4.40;99.90;;;;;;5008704;28;20156;-70
2022/12/07 10:23:29;;;;;;;4.40;1.33;;;4.40;99.90;;;;;;5013965;28;20076;-68
2022/12/07 10:25:55;;;;;;;3.53;0.82;;;4.40;99.90;;;;;;5012658;28;20531;-71
2022/12/07 10:28:22;;;;;;;4.00;1.10;;;4.30;99.90;;;;;;5019856;28;20069;-70
2022/12/07 10:31:04;;;;;;;2.95;0.80;;;4.20;99.90;;;;;;5007419;28;20058;-70
2022/12/07 10:33:33;;;;;;;5.95;0.90;;;4.20;99.90;;;;;;5009665;28;20041;-70
2022/12/07 10:36:09;;;;;;;2.25;0.93;;;4.20;99.90;;;;;;5012955;28;20057;-72
2022/12/07 10:38:46;;;;;;;7.30;1.42;;;4.20;99.90;;;;;;4996962;28;20491;-70
2022/12/07 10:41:12;;;;;;;2.40;0.98;;;4.20;99.90;;;;;;5006275;28;20121;-70
2022/12/07 10:43:46;;;;;;;2.42;0.75;;;4.20;99.90;;;;;;4998916;28;20081;-70
2022/12/07 10:46:33;;;;;;;4.97;1.17;;;4.20;99.90;;;;;;5012573;28;20053;-71
2022/12/07 10:49:07;;;;;;;4.18;0.88;;;4.20;99.90;;;;;;5000365;28;20099;-70
2022/12/07 10:51:41;;;;;;;4.53;1.15;;;4.20;99.90;;;;;;5011934;28;20079;-72
2022/12/07 10:54:18;;;;;;;2.67;1.05;;;4.10;99.90;;;;;;5014468;28;20045;-69
2022/12/07 10:56:57;;;;;;;2.60;0.70;;;4.10;99.90;;;;;;4995851;28;20046;-70
2022/12/07 11:00:12;;;;;;;5.30;0.80;;;4.20;99.90;;;;;;5042710;28;20058;-69
2022/12/07 11:03:04;;;;;;;6.75;0.80;;;4.20;99.90;;;;;;5026705;28;20121;-70
2022/12/07 11:05:48;;;;;;;5.22;0.95;;;4.20;99.90;;;;;;5011029;28;20160;-70
2022/12/07 11:08:30;;;;;;;3.30;0.80;;;4.20;99.90;;;;;;5001937;28;20479;-69
2022/12/07 11:11:12;;;;;;;3.80;0.85;;;4.20;99.90;;;;;;5016154;28;20096;-69
2022/12/07 11:13:51;;;;;;;2.13;0.70;;;4.20;99.90;;;;;;5014617;28;20093;-71
2022/12/07 11:16:27;;;;;;;2.13;0.80;;;4.20;99.90;;;;;;4999176;28;20045;-72
2022/12/07 11:19:18;;;;;;;1.58;0.73;;;4.30;99.90;;;;;;5007700;28;20088;-71
2022/12/07 11:22:03;;;;;;;4.10;0.80;;;4.20;99.90;;;;;;4998464;28;20070;-72
2022/12/07 11:25:00;;;;;;;3.38;0.98;;;4.30;99.90;;;;;;5006355;28;20590;-72
2022/12/07 11:27:51;;;;;;;3.80;1.45;;;4.30;99.90;;;;;;5002026;28;20057;-70
2022/12/07 11:30:22;;;;;;;2.42;1.08;;;4.30;99.90;;;;;;5011897;28;20050;-72
2022/12/07 11:33:07;;;;;;;2.78;0.90;;;4.30;99.90;;;;;;5013211;28;20050;-69
2022/12/07 11:36:09;;;;;;;3.35;1.30;;;4.30;99.90;;;;;;5000740;28;20533;-72
2022/12/07 11:38:52;;;;;;;4.10;0.90;;;4.30;99.90;;;;;;5044824;28;20047;-71
2022/12/07 11:41:24;;;;;;;4.07;1.00;;;3.40;99.90;;;;;;5013670;28;20416;-69
2022/12/07 11:43:53;;;;;;;1.38;0.77;;;4.30;99.90;;;;;;4998888;28;20055;-69
2022/12/07 11:46:24;;;;;;;3.22;1.13;;;4.30;99.90;;;;;;5002088;28;20562;-71
2022/12/07 11:49:10;;;;;;;1.90;0.82;;;4.30;99.90;;;;;;5003469;28;20046;-69
2022/12/07 11:51:39;;;;;;;1.73;0.90;;;4.40;99.90;;;;;;5008236;28;20109;-70
2022/12/07 11:54:25;;;;;;;4.55;1.50;;;4.40;99.90;;;;;;5016506;28;20111;-69
2022/12/07 11:56:53;;;;;;;3.83;0.88;;;4.50;99.90;;;;;;5036870;28;20031;-69
2022/12/07 11:59:38;;;;;;;3.95;1.00;;;4.40;99.90;;;;;;5024841;28;20037;-72
2022/12/07 12:02:14;;;;;;;2.40;0.82;;;4.40;99.90;;;;;;5018226;28;20445;-71
2022/12/07 12:05:11;;;;;;;3.40;1.00;;;4.40;99.90;;;;;;5020404;28;20063;-70
2022/12/07 12:07:37;;;;;;;3.50;1.13;;;4.40;99.90;;;;;;5001402;28;20109;-70
2022/12/07 12:10:19;;;;;;;2.80;1.10;;;4.40;99.90;;;;;;4996609;28;20068;-70
2022/12/07 12:12:51;;;;;;;2.90;1.10;;;4.30;99.90;;;;;;5014551;28;20133;-69
2022/12/07 12:15:36;;;;;;;3.15;0.93;;;4.30;99.90;;;;;;5030536;28;20057;-69
2022/12/07 12:18:09;;;;;;;4.40;1.10;;;4.30;99.90;;;;;;5014138;28;20497;-69
2022/12/07 12:20:43;;;;;;;2.58;1.63;;;4.40;99.90;;;;;;5015754;28;20045;-69
2022/12/07 12:23:28;;;;;;;2.13;0.93;;;4.50;99.90;;;;;;5012090;28;20539;-68
2022/12/07 12:25:57;;;;;;;2.78;1.00;;;4.60;99.90;;;;;;5000977;28;20061;-69
2022/12/07 12:28:41;;;;;;;3.72;1.13;;;4.70;99.90;;;;;;5016474;28;20034;-69
2022/12/07 12:31:11;;;;;;;4.80;1.20;;;4.70;99.90;;;;;;5024267;28;20063;-69
2022/12/07 12:33:42;;;;;;;3.60;0.88;;;4.80;99.90;;;;;;5020819;28;20101;-69
2022/12/07 12:36:44;;;;;;;3.25;1.40;;;4.80;99.90;;;;;;5016914;28;20057;-69
2022/12/07 12:39:16;;;;;;;3.97;1.10;;;4.80;99.90;;;;;;5006382;28;20136;-69
2022/12/07 12:44:19;;;;;;;5.35;1.25;;;4.90;99.90;;;;;;4995850;28;20109;-69
2022/12/07 12:46:58;;;;;;;4.57;0.95;;;4.90;99.90;;;;;;5010898;28;20091;-70
2022/12/07 12:49:24;;;;;;;2.60;0.90;;;5.00;99.90;;;;;;5013535;28;20057;-68
2022/12/07 12:51:52;;;;;;;3.05;0.90;;;5.00;99.90;;;;;;5007293;28;20068;-69
2022/12/07 12:54:18;;;;;;;3.85;0.90;;;5.10;99.90;;;;;;5012997;28;20038;-70
2022/12/07 12:57:26;;;;;;;3.90;0.90;;;5.00;99.90;;;;;;5013746;28;20058;-69
2022/12/07 12:59:52;;;;;;;4.03;0.88;;;4.90;99.90;;;;;;5031567;28;20136;-70
2022/12/07 13:02:34;;;;;;;4.15;0.98;;;4.90;99.90;;;;;;5018312;28;20553;-71
2022/12/07 13:05:07;;;;;;;2.25;0.98;;;4.80;99.90;;;;;;4996247;28;20501;-71
2022/12/07 13:07:49;;;;;;;2.78;1.00;;;4.80;99.90;;;;;;5014078;28;20054;-72
2022/12/07 13:10:30;;;;;;;3.13;0.95;;;4.80;99.90;;;;;;5013927;28;20112;-70
2022/12/07 13:13:05;;;;;;;3.83;1.00;;;4.80;99.90;;;;;;5018031;28;20050;-69
2022/12/07 13:15:42;;;;;;;4.00;1.45;;;4.70;99.90;;;;;;5017835;28;20497;-68
2022/12/07 13:18:08;;;;;;;3.28;0.90;;;4.70;99.90;;;;;;5002626;28;20052;-68
2022/12/07 13:20:46;;;;;;;2.95;0.98;;;4.80;99.90;;;;;;5006978;28;20050;-68
2022/12/07 13:23:16;;;;;;;3.75;0.90;;;4.70;99.90;;;;;;5008057;28;20057;-68